sensor_id;sensor_type;location;lat;lon;timestamp;P1;durP1;ratioP1;P2;durP2;ratioP2
41923;SDS011;27613;48.116;11.656;2023-02-01T00:01:26;6.85;;;2.90;;
41923;SDS011;27613;48.116;11.656;2023-02-01T00:03:52;4.03;;;2.80;;
41923;SDS011;27613;48.116;11.656;2023-02-01T00:06:17;6.78;;;2.70;;
41923;SDS011;27613;48.116;11.656;2023-02-01T00:08:43;4.03;;;2.60;;
41923;SDS011;27613;48.116;11.656;2023-02-01T00:11:09;4.72;;;2.60;;
41923;SDS011;27613;48.116;11.656;2023-02-01T00:13:37;4.38;;;2.53;;
41923;SDS011;27613;48.116;11.656;2023-02-01T00:16:09;4.53;;;2.47;;
41923;SDS011;27613;48.116;11.656;2023-02-01T00:18:37;6.30;;;3.20;;
41923;SDS011;27613;48.116;11.656;2023-02-01T00:21:02;9.63;;;2.67;;
41923;SDS011;27613;48.116;11.656;2023-02-01T00:23:31;3.45;;;2.38;;
41923;SDS011;27613;48.116;11.656;2023-02-01T00:26:02;3.58;;;2.42;;
41923;SDS011;27613;48.116;11.656;2023-02-01T00:28:29;4.40;;;2.53;;
41923;SDS011;27613;48.116;11.656;2023-02-01T00:30:55;3.20;;;2.05;;
41923;SDS011;27613;48.116;11.656;2023-02-01T00:33:25;3.42;;;2.25;;
41923;SDS011;27613;48.116;11.656;2023-02-01T00:35:55;4.07;;;2.63;;
41923;SDS011;27613;48.116;11.656;2023-02-01T00:38:25;3.30;;;2.15;;
41923;SDS011;27613;48.116;11.656;2023-02-01T00:40:51;3.65;;;2.42;;
41923;SDS011;27613;48.116;11.656;2023-02-01T00:43:17;4.40;;;2.50;;
41923;SDS011;27613;48.116;11.656;2023-02-01T00:45:42;3.65;;;2.45;;
41923;SDS011;27613;48.116;11.656;2023-02-01T00:48:09;3.58;;;2.25;;
41923;SDS011;27613;48.116;11.656;2023-02-01T00:50:35;4.20;;;2.35;;
41923;SDS011;27613;48.116;11.656;2023-02-01T00:53:00;5.78;;;2.60;;
41923;SDS011;27613;48.116;11.656;2023-02-01T00:55:26;6.38;;;2.78;;
41923;SDS011;27613;48.116;11.656;2023-02-01T00:57:51;3.30;;;2.50;;
41923;SDS011;27613;48.116;11.656;2023-02-01T01:00:17;3.78;;;2.75;;
41923;SDS011;27613;48.116;11.656;2023-02-01T01:02:43;5.20;;;2.58;;
41923;SDS011;27613;48.116;11.656;2023-02-01T01:05:08;8.77;;;3.45;;
41923;SDS011;27613;48.116;11.656;2023-02-01T01:07:34;5.20;;;3.45;;
41923;SDS011;27613;48.116;11.656;2023-02-01T01:09:59;3.55;;;2.50;;
41923;SDS011;27613;48.116;11.656;2023-02-01T01:12:25;4.78;;;2.80;;
41923;SDS011;27613;48.116;11.656;2023-02-01T01:14:51;4.78;;;3.30;;
41923;SDS011;27613;48.116;11.656;2023-02-01T01:17:16;4.53;;;2.85;;
41923;SDS011;27613;48.116;11.656;2023-02-01T01:19:42;4.05;;;2.92;;
41923;SDS011;27613;48.116;11.656;2023-02-01T01:22:07;6.38;;;3.33;;
41923;SDS011;27613;48.116;11.656;2023-02-01T01:24:33;4.97;;;2.95;;
41923;SDS011;27613;48.116;11.656;2023-02-01T01:26:58;5.18;;;3.15;;
41923;SDS011;27613;48.116;11.656;2023-02-01T01:29:24;4.43;;;3.13;;
41923;SDS011;27613;48.116;11.656;2023-02-01T01:31:50;4.70;;;3.58;;
41923;SDS011;27613;48.116;11.656;2023-02-01T01:34:15;5.05;;;3.42;;
41923;SDS011;27613;48.116;11.656;2023-02-01T01:36:41;6.07;;;3.17;;
41923;SDS011;27613;48.116;11.656;2023-02-01T01:39:06;6.25;;;3.70;;
41923;SDS011;27613;48.116;11.656;2023-02-01T01:41:32;6.00;;;3.60;;
41923;SDS011;27613;48.116;11.656;2023-02-01T01:44:02;6.00;;;4.10;;
41923;SDS011;27613;48.116;11.656;2023-02-01T01:46:30;6.78;;;4.07;;
41923;SDS011;27613;48.116;11.656;2023-02-01T01:51:36;6.68;;;4.80;;
41923;SDS011;27613;48.116;11.656;2023-02-01T01:54:07;5.90;;;4.10;;
41923;SDS011;27613;48.116;11.656;2023-02-01T01:56:38;8.98;;;4.88;;
41923;SDS011;27613;48.116;11.656;2023-02-01T01:59:05;5.80;;;4.18;;
41923;SDS011;27613;48.116;11.656;2023-02-01T02:01:31;6.57;;;4.63;;
41923;SDS011;27613;48.116;11.656;2023-02-01T02:03:57;7.78;;;4.88;;
41923;SDS011;27613;48.116;11.656;2023-02-01T02:06:29;7.22;;;5.00;;
41923;SDS011;27613;48.116;11.656;2023-02-01T02:09:10;7.53;;;4.38;;
41923;SDS011;27613;48.116;11.656;2023-02-01T02:11:36;10.45;;;5.20;;
41923;SDS011;27613;48.116;11.656;2023-02-01T02:14:01;6.35;;;4.70;;
41923;SDS011;27613;48.116;11.656;2023-02-01T02:19:22;5.80;;;4.15;;
41923;SDS011;27613;48.116;11.656;2023-02-01T02:30:51;7.97;;;4.75;;
41923;SDS011;27613;48.116;11.656;2023-02-01T02:36:15;8.38;;;4.70;;
41923;SDS011;27613;48.116;11.656;2023-02-01T02:38:47;8.15;;;4.93;;
41923;SDS011;27613;48.116;11.656;2023-02-01T02:41:31;7.35;;;5.05;;
41923;SDS011;27613;48.116;11.656;2023-02-01T02:44:25;6.32;;;4.53;;
41923;SDS011;27613;48.116;11.656;2023-02-01T02:50:20;5.63;;;4.25;;
41923;SDS011;27613;48.116;11.656;2023-02-01T02:53:21;6.78;;;4.03;;
41923;SDS011;27613;48.116;11.656;2023-02-01T02:56:20;6.28;;;4.05;;
41923;SDS011;27613;48.116;11.656;2023-02-01T02:59:07;7.40;;;3.85;;
41923;SDS011;27613;48.116;11.656;2023-02-01T03:01:53;6.93;;;3.95;;
41923;SDS011;27613;48.116;11.656;2023-02-01T03:04:38;6.72;;;4.00;;
41923;SDS011;27613;48.116;11.656;2023-02-01T03:07:11;5.10;;;4.00;;
41923;SDS011;27613;48.116;11.656;2023-02-01T03:09:57;6.47;;;4.40;;
41923;SDS011;27613;48.116;11.656;2023-02-01T03:12:29;5.55;;;4.05;;
41923;SDS011;27613;48.116;11.656;2023-02-01T03:17:41;6.20;;;3.72;;
41923;SDS011;27613;48.116;11.656;2023-02-01T03:20:09;6.05;;;3.58;;
41923;SDS011;27613;48.116;11.656;2023-02-01T03:22:38;7.07;;;4.55;;
41923;SDS011;27613;48.116;11.656;2023-02-01T03:25:09;5.93;;;4.10;;
41923;SDS011;27613;48.116;11.656;2023-02-01T03:27:41;7.47;;;4.18;;
41923;SDS011;27613;48.116;11.656;2023-02-01T03:32:57;5.85;;;3.33;;
41923;SDS011;27613;48.116;11.656;2023-02-01T03:35:37;4.88;;;3.45;;
41923;SDS011;27613;48.116;11.656;2023-02-01T03:40:45;6.10;;;3.72;;
41923;SDS011;27613;48.116;11.656;2023-02-01T03:43:16;5.65;;;3.42;;
41923;SDS011;27613;48.116;11.656;2023-02-01T03:45:45;5.72;;;3.33;;
41923;SDS011;27613;48.116;11.656;2023-02-01T03:48:15;7.47;;;3.45;;
41923;SDS011;27613;48.116;11.656;2023-02-01T03:50:46;5.50;;;3.58;;
41923;SDS011;27613;48.116;11.656;2023-02-01T03:53:16;5.68;;;3.22;;
41923;SDS011;27613;48.116;11.656;2023-02-01T03:55:44;4.68;;;3.17;;
41923;SDS011;27613;48.116;11.656;2023-02-01T03:58:12;4.68;;;3.38;;
41923;SDS011;27613;48.116;11.656;2023-02-01T04:00:42;5.07;;;3.30;;
41923;SDS011;27613;48.116;11.656;2023-02-01T04:03:11;4.18;;;2.92;;
41923;SDS011;27613;48.116;11.656;2023-02-01T04:05:36;4.45;;;3.20;;
41923;SDS011;27613;48.116;11.656;2023-02-01T04:08:02;5.47;;;3.55;;
41923;SDS011;27613;48.116;11.656;2023-02-01T04:10:29;4.85;;;3.30;;
41923;SDS011;27613;48.116;11.656;2023-02-01T04:12:55;5.50;;;3.45;;
41923;SDS011;27613;48.116;11.656;2023-02-01T04:15:20;3.85;;;2.90;;
41923;SDS011;27613;48.116;11.656;2023-02-01T04:17:46;6.78;;;3.30;;
41923;SDS011;27613;48.116;11.656;2023-02-01T04:20:12;4.82;;;3.33;;
41923;SDS011;27613;48.116;11.656;2023-02-01T04:22:37;4.38;;;3.20;;
41923;SDS011;27613;48.116;11.656;2023-02-01T04:25:03;6.90;;;2.78;;
41923;SDS011;27613;48.116;11.656;2023-02-01T04:27:30;4.50;;;3.30;;
41923;SDS011;27613;48.116;11.656;2023-02-01T04:29:56;4.45;;;3.35;;
41923;SDS011;27613;48.116;11.656;2023-02-01T04:32:22;4.57;;;3.15;;
41923;SDS011;27613;48.116;11.656;2023-02-01T04:34:47;5.13;;;3.13;;
41923;SDS011;27613;48.116;11.656;2023-02-01T04:37:13;4.53;;;2.83;;
41923;SDS011;27613;48.116;11.656;2023-02-01T04:39:38;4.38;;;3.20;;
41923;SDS011;27613;48.116;11.656;2023-02-01T04:42:04;6.03;;;3.95;;
41923;SDS011;27613;48.116;11.656;2023-02-01T04:44:30;5.63;;;3.53;;
41923;SDS011;27613;48.116;11.656;2023-02-01T04:46:55;4.82;;;3.17;;
41923;SDS011;27613;48.116;11.656;2023-02-01T04:49:21;4.18;;;3.05;;
41923;SDS011;27613;48.116;11.656;2023-02-01T04:51:46;4.00;;;3.03;;
41923;SDS011;27613;48.116;11.656;2023-02-01T04:54:13;5.20;;;3.15;;
41923;SDS011;27613;48.116;11.656;2023-02-01T04:56:39;4.93;;;3.42;;
41923;SDS011;27613;48.116;11.656;2023-02-01T04:59:05;4.03;;;2.90;;
41923;SDS011;27613;48.116;11.656;2023-02-01T05:01:31;5.70;;;3.60;;
41923;SDS011;27613;48.116;11.656;2023-02-01T05:03:56;5.55;;;3.50;;
41923;SDS011;27613;48.116;11.656;2023-02-01T05:06:22;7.03;;;3.97;;
41923;SDS011;27613;48.116;11.656;2023-02-01T05:08:48;4.85;;;3.22;;
41923;SDS011;27613;48.116;11.656;2023-02-01T05:11:13;4.90;;;3.42;;
41923;SDS011;27613;48.116;11.656;2023-02-01T05:13:58;5.53;;;3.47;;
41923;SDS011;27613;48.116;11.656;2023-02-01T05:16:25;4.25;;;3.38;;
41923;SDS011;27613;48.116;11.656;2023-02-01T05:18:51;5.00;;;3.40;;
41923;SDS011;27613;48.116;11.656;2023-02-01T05:21:17;4.03;;;3.13;;
41923;SDS011;27613;48.116;11.656;2023-02-01T05:23:43;11.27;;;4.05;;
41923;SDS011;27613;48.116;11.656;2023-02-01T05:26:27;6.03;;;3.80;;
41923;SDS011;27613;48.116;11.656;2023-02-01T05:28:53;5.63;;;3.78;;
41923;SDS011;27613;48.116;11.656;2023-02-01T05:31:19;4.80;;;3.13;;
41923;SDS011;27613;48.116;11.656;2023-02-01T05:33:45;5.47;;;3.85;;
41923;SDS011;27613;48.116;11.656;2023-02-01T05:36:10;5.43;;;3.47;;
41923;SDS011;27613;48.116;11.656;2023-02-01T05:38:36;6.07;;;4.10;;
41923;SDS011;27613;48.116;11.656;2023-02-01T05:41:01;7.88;;;4.57;;
41923;SDS011;27613;48.116;11.656;2023-02-01T05:43:27;4.80;;;3.28;;
41923;SDS011;27613;48.116;11.656;2023-02-01T05:45:53;6.85;;;4.45;;
41923;SDS011;27613;48.116;11.656;2023-02-01T05:48:18;10.95;;;5.20;;
41923;SDS011;27613;48.116;11.656;2023-02-01T05:50:44;5.60;;;3.85;;
41923;SDS011;27613;48.116;11.656;2023-02-01T05:53:10;4.93;;;3.58;;
41923;SDS011;27613;48.116;11.656;2023-02-01T05:55:36;6.45;;;3.65;;
41923;SDS011;27613;48.116;11.656;2023-02-01T05:58:02;6.13;;;4.03;;
41923;SDS011;27613;48.116;11.656;2023-02-01T06:00:29;5.57;;;3.75;;
41923;SDS011;27613;48.116;11.656;2023-02-01T06:02:54;9.82;;;4.18;;
41923;SDS011;27613;48.116;11.656;2023-02-01T06:05:20;4.65;;;3.47;;
41923;SDS011;27613;48.116;11.656;2023-02-01T06:07:45;5.75;;;3.88;;
41923;SDS011;27613;48.116;11.656;2023-02-01T06:10:11;6.35;;;3.95;;
41923;SDS011;27613;48.116;11.656;2023-02-01T06:12:37;5.38;;;3.80;;
41923;SDS011;27613;48.116;11.656;2023-02-01T06:15:03;4.43;;;3.72;;
41923;SDS011;27613;48.116;11.656;2023-02-01T06:17:28;5.80;;;3.80;;
41923;SDS011;27613;48.116;11.656;2023-02-01T06:19:54;5.97;;;3.97;;
41923;SDS011;27613;48.116;11.656;2023-02-01T06:22:20;5.47;;;4.07;;
41923;SDS011;27613;48.116;11.656;2023-02-01T06:24:46;5.82;;;3.83;;
41923;SDS011;27613;48.116;11.656;2023-02-01T06:27:12;5.38;;;3.80;;
41923;SDS011;27613;48.116;11.656;2023-02-01T06:29:38;6.90;;;4.22;;
41923;SDS011;27613;48.116;11.656;2023-02-01T06:32:03;5.93;;;4.30;;
41923;SDS011;27613;48.116;11.656;2023-02-01T06:34:29;6.95;;;3.45;;
41923;SDS011;27613;48.116;11.656;2023-02-01T06:36:55;5.45;;;3.95;;
41923;SDS011;27613;48.116;11.656;2023-02-01T06:39:20;5.25;;;3.70;;
41923;SDS011;27613;48.116;11.656;2023-02-01T06:41:49;4.68;;;3.55;;
41923;SDS011;27613;48.116;11.656;2023-02-01T06:44:15;6.50;;;4.50;;
41923;SDS011;27613;48.116;11.656;2023-02-01T06:46:41;5.53;;;4.13;;
41923;SDS011;27613;48.116;11.656;2023-02-01T06:49:07;5.35;;;3.83;;
41923;SDS011;27613;48.116;11.656;2023-02-01T06:51:33;6.25;;;3.80;;
41923;SDS011;27613;48.116;11.656;2023-02-01T06:53:59;5.50;;;3.75;;
41923;SDS011;27613;48.116;11.656;2023-02-01T06:56:26;5.20;;;3.72;;
41923;SDS011;27613;48.116;11.656;2023-02-01T06:58:52;6.57;;;3.92;;
41923;SDS011;27613;48.116;11.656;2023-02-01T07:01:18;6.20;;;3.88;;
41923;SDS011;27613;48.116;11.656;2023-02-01T07:03:47;5.38;;;3.22;;
41923;SDS011;27613;48.116;11.656;2023-02-01T07:06:18;4.35;;;3.28;;
41923;SDS011;27613;48.116;11.656;2023-02-01T07:08:44;6.00;;;3.95;;
41923;SDS011;27613;48.116;11.656;2023-02-01T07:11:11;5.75;;;3.45;;
41923;SDS011;27613;48.116;11.656;2023-02-01T07:13:39;6.90;;;3.50;;
41923;SDS011;27613;48.116;11.656;2023-02-01T07:16:06;5.32;;;3.63;;
41923;SDS011;27613;48.116;11.656;2023-02-01T07:18:36;7.32;;;3.83;;
41923;SDS011;27613;48.116;11.656;2023-02-01T07:21:01;5.00;;;3.58;;
41923;SDS011;27613;48.116;11.656;2023-02-01T07:23:27;5.85;;;3.58;;
41923;SDS011;27613;48.116;11.656;2023-02-01T07:25:53;3.70;;;2.83;;
41923;SDS011;27613;48.116;11.656;2023-02-01T07:28:20;5.55;;;3.53;;
41923;SDS011;27613;48.116;11.656;2023-02-01T07:30:46;4.63;;;3.60;;
41923;SDS011;27613;48.116;11.656;2023-02-01T07:33:19;4.47;;;3.10;;
41923;SDS011;27613;48.116;11.656;2023-02-01T07:35:47;4.63;;;3.00;;
41923;SDS011;27613;48.116;11.656;2023-02-01T07:38:13;4.45;;;2.97;;
41923;SDS011;27613;48.116;11.656;2023-02-01T07:40:39;4.03;;;2.85;;
41923;SDS011;27613;48.116;11.656;2023-02-01T07:43:04;4.93;;;3.30;;
41923;SDS011;27613;48.116;11.656;2023-02-01T07:45:34;4.40;;;2.90;;
41923;SDS011;27613;48.116;11.656;2023-02-01T07:48:00;3.78;;;2.78;;
41923;SDS011;27613;48.116;11.656;2023-02-01T07:50:26;3.33;;;2.55;;
41923;SDS011;27613;48.116;11.656;2023-02-01T07:52:52;5.25;;;3.00;;
41923;SDS011;27613;48.116;11.656;2023-02-01T07:55:18;3.78;;;2.58;;
41923;SDS011;27613;48.116;11.656;2023-02-01T07:57:47;4.40;;;2.80;;
41923;SDS011;27613;48.116;11.656;2023-02-01T08:00:13;5.00;;;2.97;;
41923;SDS011;27613;48.116;11.656;2023-02-01T08:02:58;4.72;;;2.75;;
41923;SDS011;27613;48.116;11.656;2023-02-01T08:05:24;5.18;;;2.30;;
41923;SDS011;27613;48.116;11.656;2023-02-01T08:07:50;4.40;;;2.45;;
41923;SDS011;27613;48.116;11.656;2023-02-01T08:10:16;2.70;;;2.13;;
41923;SDS011;27613;48.116;11.656;2023-02-01T08:12:43;3.10;;;2.30;;
41923;SDS011;27613;48.116;11.656;2023-02-01T08:15:12;4.28;;;2.40;;
41923;SDS011;27613;48.116;11.656;2023-02-01T08:17:39;3.80;;;2.17;;
41923;SDS011;27613;48.116;11.656;2023-02-01T08:20:05;3.15;;;2.13;;
41923;SDS011;27613;48.116;11.656;2023-02-01T08:22:31;5.78;;;2.40;;
41923;SDS011;27613;48.116;11.656;2023-02-01T08:24:57;4.78;;;2.20;;
41923;SDS011;27613;48.116;11.656;2023-02-01T08:27:26;3.45;;;2.20;;
41923;SDS011;27613;48.116;11.656;2023-02-01T08:29:52;2.97;;;1.95;;
41923;SDS011;27613;48.116;11.656;2023-02-01T08:32:18;4.38;;;2.10;;
41923;SDS011;27613;48.116;11.656;2023-02-01T08:34:44;3.97;;;2.38;;
41923;SDS011;27613;48.116;11.656;2023-02-01T08:37:10;3.45;;;2.10;;
41923;SDS011;27613;48.116;11.656;2023-02-01T08:39:35;3.03;;;2.00;;
41923;SDS011;27613;48.116;11.656;2023-02-01T08:42:01;3.35;;;2.03;;
41923;SDS011;27613;48.116;11.656;2023-02-01T08:44:45;2.78;;;1.77;;
41923;SDS011;27613;48.116;11.656;2023-02-01T08:47:12;3.83;;;2.20;;
41923;SDS011;27613;48.116;11.656;2023-02-01T08:49:37;4.40;;;2.13;;
41923;SDS011;27613;48.116;11.656;2023-02-01T08:52:03;3.28;;;2.00;;
41923;SDS011;27613;48.116;11.656;2023-02-01T08:54:28;9.73;;;2.35;;
41923;SDS011;27613;48.116;11.656;2023-02-01T08:56:54;6.85;;;2.30;;
41923;SDS011;27613;48.116;11.656;2023-02-01T08:59:21;3.75;;;2.40;;
41923;SDS011;27613;48.116;11.656;2023-02-01T09:01:46;3.33;;;2.03;;
41923;SDS011;27613;48.116;11.656;2023-02-01T09:04:12;3.25;;;2.22;;
41923;SDS011;27613;48.116;11.656;2023-02-01T09:06:39;4.43;;;1.98;;
41923;SDS011;27613;48.116;11.656;2023-02-01T09:09:06;3.58;;;2.13;;
41923;SDS011;27613;48.116;11.656;2023-02-01T09:11:31;3.40;;;2.08;;
41923;SDS011;27613;48.116;11.656;2023-02-01T09:13:57;3.33;;;2.40;;
41923;SDS011;27613;48.116;11.656;2023-02-01T09:16:22;2.90;;;2.10;;
41923;SDS011;27613;48.116;11.656;2023-02-01T09:18:48;3.75;;;2.42;;
41923;SDS011;27613;48.116;11.656;2023-02-01T09:21:13;6.10;;;2.83;;
41923;SDS011;27613;48.116;11.656;2023-02-01T09:23:39;2.95;;;2.15;;
41923;SDS011;27613;48.116;11.656;2023-02-01T09:26:05;4.60;;;2.45;;
41923;SDS011;27613;48.116;11.656;2023-02-01T09:28:31;2.95;;;1.83;;
41923;SDS011;27613;48.116;11.656;2023-02-01T09:30:57;4.60;;;3.00;;
41923;SDS011;27613;48.116;11.656;2023-02-01T09:33:25;4.40;;;2.13;;
41923;SDS011;27613;48.116;11.656;2023-02-01T09:36:01;4.07;;;2.47;;
41923;SDS011;27613;48.116;11.656;2023-02-01T09:38:28;4.93;;;2.13;;
41923;SDS011;27613;48.116;11.656;2023-02-01T09:40:55;6.75;;;2.10;;
41923;SDS011;27613;48.116;11.656;2023-02-01T09:48:37;3.65;;;2.30;;
41923;SDS011;27613;48.116;11.656;2023-02-01T09:51:06;4.50;;;2.10;;
41923;SDS011;27613;48.116;11.656;2023-02-01T09:53:43;7.05;;;2.08;;
41923;SDS011;27613;48.116;11.656;2023-02-01T09:56:14;3.63;;;2.15;;
41923;SDS011;27613;48.116;11.656;2023-02-01T09:59:01;6.05;;;2.70;;
41923;SDS011;27613;48.116;11.656;2023-02-01T10:01:43;3.17;;;1.83;;
41923;SDS011;27613;48.116;11.656;2023-02-01T10:04:10;3.72;;;2.55;;
41923;SDS011;27613;48.116;11.656;2023-02-01T10:09:41;5.15;;;3.10;;
41923;SDS011;27613;48.116;11.656;2023-02-01T10:22:58;8.32;;;2.60;;
41923;SDS011;27613;48.116;11.656;2023-02-01T10:25:55;6.05;;;2.58;;
41923;SDS011;27613;48.116;11.656;2023-02-01T10:28:27;3.28;;;1.80;;
41923;SDS011;27613;48.116;11.656;2023-02-01T10:30:54;7.15;;;2.28;;
41923;SDS011;27613;48.116;11.656;2023-02-01T10:33:23;5.10;;;2.55;;
41923;SDS011;27613;48.116;11.656;2023-02-01T10:35:53;5.75;;;2.80;;
41923;SDS011;27613;48.116;11.656;2023-02-01T10:38:27;4.13;;;2.33;;
41923;SDS011;27613;48.116;11.656;2023-02-01T10:40:55;2.92;;;1.98;;
41923;SDS011;27613;48.116;11.656;2023-02-01T10:43:26;5.10;;;2.45;;
41923;SDS011;27613;48.116;11.656;2023-02-01T10:45:52;3.20;;;2.00;;
41923;SDS011;27613;48.116;11.656;2023-02-01T10:48:18;5.50;;;2.13;;
41923;SDS011;27613;48.116;11.656;2023-02-01T10:50:46;2.83;;;2.00;;
41923;SDS011;27613;48.116;11.656;2023-02-01T10:53:32;5.45;;;2.30;;
41923;SDS011;27613;48.116;11.656;2023-02-01T10:56:18;3.30;;;2.30;;
41923;SDS011;27613;48.116;11.656;2023-02-01T10:58:50;3.80;;;2.20;;
41923;SDS011;27613;48.116;11.656;2023-02-01T11:01:17;2.80;;;2.00;;
41923;SDS011;27613;48.116;11.656;2023-02-01T11:11:32;10.88;;;2.53;;
41923;SDS011;27613;48.116;11.656;2023-02-01T11:14:17;6.00;;;2.78;;
41923;SDS011;27613;48.116;11.656;2023-02-01T11:16:49;4.75;;;2.58;;
41923;SDS011;27613;48.116;11.656;2023-02-01T11:19:19;4.22;;;2.45;;
41923;SDS011;27613;48.116;11.656;2023-02-01T11:21:45;4.18;;;2.78;;
41923;SDS011;27613;48.116;11.656;2023-02-01T11:24:22;8.38;;;3.10;;
41923;SDS011;27613;48.116;11.656;2023-02-01T11:26:51;3.30;;;2.22;;
41923;SDS011;27613;48.116;11.656;2023-02-01T11:29:21;3.47;;;2.42;;
41923;SDS011;27613;48.116;11.656;2023-02-01T11:31:54;4.55;;;2.78;;
41923;SDS011;27613;48.116;11.656;2023-02-01T11:34:24;3.95;;;2.33;;
41923;SDS011;27613;48.116;11.656;2023-02-01T11:37:21;4.03;;;2.50;;
41923;SDS011;27613;48.116;11.656;2023-02-01T11:39:59;6.00;;;3.00;;
41923;SDS011;27613;48.116;11.656;2023-02-01T11:42:27;5.03;;;2.58;;
41923;SDS011;27613;48.116;11.656;2023-02-01T11:47:51;5.00;;;2.78;;
41923;SDS011;27613;48.116;11.656;2023-02-01T11:50:19;3.78;;;2.22;;
41923;SDS011;27613;48.116;11.656;2023-02-01T11:55:49;2.95;;;2.00;;
41923;SDS011;27613;48.116;11.656;2023-02-01T12:12:08;5.82;;;3.63;;
41923;SDS011;27613;48.116;11.656;2023-02-01T12:20:26;5.63;;;3.00;;
41923;SDS011;27613;48.116;11.656;2023-02-01T12:31:34;5.93;;;3.17;;
41923;SDS011;27613;48.116;11.656;2023-02-01T12:39:39;6.95;;;3.10;;
41923;SDS011;27613;48.116;11.656;2023-02-01T12:42:14;5.55;;;3.00;;
41923;SDS011;27613;48.116;11.656;2023-02-01T12:44:50;9.30;;;2.70;;
41923;SDS011;27613;48.116;11.656;2023-02-01T12:50:24;6.47;;;2.67;;
41923;SDS011;27613;48.116;11.656;2023-02-01T12:53:00;7.35;;;2.60;;
41923;SDS011;27613;48.116;11.656;2023-02-01T12:56:47;5.47;;;2.95;;
41923;SDS011;27613;48.116;11.656;2023-02-01T12:58:48;5.22;;;2.75;;
41923;SDS011;27613;48.116;11.656;2023-02-01T13:04:30;10.27;;;3.25;;
41923;SDS011;27613;48.116;11.656;2023-02-01T13:13:04;4.25;;;2.13;;
41923;SDS011;27613;48.116;11.656;2023-02-01T13:15:26;6.05;;;2.90;;
41923;SDS011;27613;48.116;11.656;2023-02-01T13:17:57;6.68;;;2.72;;
41923;SDS011;27613;48.116;11.656;2023-02-01T13:20:31;8.60;;;2.80;;
41923;SDS011;27613;48.116;11.656;2023-02-01T13:23:05;6.10;;;2.80;;
41923;SDS011;27613;48.116;11.656;2023-02-01T13:25:43;4.70;;;1.98;;
41923;SDS011;27613;48.116;11.656;2023-02-01T13:28:12;3.75;;;1.98;;
41923;SDS011;27613;48.116;11.656;2023-02-01T13:36:50;6.72;;;3.13;;
41923;SDS011;27613;48.116;11.656;2023-02-01T13:39:06;7.25;;;2.97;;
41923;SDS011;27613;48.116;11.656;2023-02-01T13:42:00;9.43;;;2.90;;
41923;SDS011;27613;48.116;11.656;2023-02-01T13:44:31;6.00;;;3.00;;
41923;SDS011;27613;48.116;11.656;2023-02-01T13:47:00;4.68;;;2.80;;
41923;SDS011;27613;48.116;11.656;2023-02-01T13:49:29;5.57;;;2.78;;
41923;SDS011;27613;48.116;11.656;2023-02-01T13:51:58;6.43;;;2.70;;
41923;SDS011;27613;48.116;11.656;2023-02-01T13:56:54;5.55;;;2.92;;
41923;SDS011;27613;48.116;11.656;2023-02-01T13:59:37;3.47;;;2.10;;
41923;SDS011;27613;48.116;11.656;2023-02-01T14:05:12;6.75;;;3.08;;
41923;SDS011;27613;48.116;11.656;2023-02-01T14:08:02;25.27;;;3.90;;
41923;SDS011;27613;48.116;11.656;2023-02-01T14:23:44;7.60;;;3.50;;
41923;SDS011;27613;48.116;11.656;2023-02-01T14:26:18;4.40;;;2.45;;
41923;SDS011;27613;48.116;11.656;2023-02-01T14:28:47;5.18;;;2.45;;
41923;SDS011;27613;48.116;11.656;2023-02-01T14:34:18;6.35;;;2.90;;
41923;SDS011;27613;48.116;11.656;2023-02-01T14:37:08;5.97;;;3.17;;
41923;SDS011;27613;48.116;11.656;2023-02-01T14:39:38;5.80;;;2.55;;
41923;SDS011;27613;48.116;11.656;2023-02-01T14:47:52;6.00;;;2.97;;
41923;SDS011;27613;48.116;11.656;2023-02-01T14:55:35;6.10;;;2.42;;
41923;SDS011;27613;48.116;11.656;2023-02-01T14:58:34;3.97;;;2.10;;
41923;SDS011;27613;48.116;11.656;2023-02-01T15:01:02;10.60;;;3.08;;
41923;SDS011;27613;48.116;11.656;2023-02-01T15:06:36;5.18;;;2.50;;
41923;SDS011;27613;48.116;11.656;2023-02-01T15:09:17;5.63;;;2.70;;
41923;SDS011;27613;48.116;11.656;2023-02-01T15:14:26;7.03;;;3.22;;
41923;SDS011;27613;48.116;11.656;2023-02-01T15:16:53;6.75;;;3.00;;
41923;SDS011;27613;48.116;11.656;2023-02-01T15:19:20;4.68;;;2.40;;
41923;SDS011;27613;48.116;11.656;2023-02-01T15:21:48;17.13;;;3.70;;
41923;SDS011;27613;48.116;11.656;2023-02-01T15:26:48;10.40;;;4.15;;
41923;SDS011;27613;48.116;11.656;2023-02-01T15:29:15;8.73;;;3.05;;
41923;SDS011;27613;48.116;11.656;2023-02-01T15:31:45;6.18;;;2.90;;
41923;SDS011;27613;48.116;11.656;2023-02-01T15:34:13;8.63;;;3.67;;
41923;SDS011;27613;48.116;11.656;2023-02-01T15:36:39;8.20;;;3.72;;
41923;SDS011;27613;48.116;11.656;2023-02-01T15:41:48;8.65;;;3.22;;
41923;SDS011;27613;48.116;11.656;2023-02-01T15:47:06;8.57;;;3.47;;
41923;SDS011;27613;48.116;11.656;2023-02-01T15:49:41;8.73;;;3.97;;
41923;SDS011;27613;48.116;11.656;2023-02-01T15:52:15;6.80;;;3.22;;
41923;SDS011;27613;48.116;11.656;2023-02-01T15:54:54;4.28;;;2.13;;
41923;SDS011;27613;48.116;11.656;2023-02-01T15:57:23;4.90;;;2.42;;
41923;SDS011;27613;48.116;11.656;2023-02-01T15:59:56;7.30;;;3.10;;
41923;SDS011;27613;48.116;11.656;2023-02-01T16:02:27;4.03;;;2.08;;
41923;SDS011;27613;48.116;11.656;2023-02-01T16:05:03;3.45;;;2.17;;
41923;SDS011;27613;48.116;11.656;2023-02-01T16:07:32;6.30;;;2.92;;
41923;SDS011;27613;48.116;11.656;2023-02-01T16:09:59;5.60;;;2.53;;
41923;SDS011;27613;48.116;11.656;2023-02-01T16:12:33;7.72;;;3.50;;
41923;SDS011;27613;48.116;11.656;2023-02-01T16:15:10;8.38;;;3.63;;
41923;SDS011;27613;48.116;11.656;2023-02-01T16:17:35;7.22;;;2.47;;
41923;SDS011;27613;48.116;11.656;2023-02-01T16:20:01;6.40;;;2.55;;
41923;SDS011;27613;48.116;11.656;2023-02-01T16:22:26;7.30;;;3.00;;
41923;SDS011;27613;48.116;11.656;2023-02-01T16:24:52;7.85;;;2.78;;
41923;SDS011;27613;48.116;11.656;2023-02-01T16:27:17;5.35;;;2.00;;
41923;SDS011;27613;48.116;11.656;2023-02-01T16:29:43;7.72;;;2.47;;
41923;SDS011;27613;48.116;11.656;2023-02-01T16:32:12;14.32;;;4.70;;
41923;SDS011;27613;48.116;11.656;2023-02-01T16:34:42;6.70;;;2.78;;
41923;SDS011;27613;48.116;11.656;2023-02-01T16:37:09;7.50;;;2.88;;
41923;SDS011;27613;48.116;11.656;2023-02-01T16:39:57;5.75;;;2.83;;
41923;SDS011;27613;48.116;11.656;2023-02-01T16:42:22;6.97;;;2.88;;
41923;SDS011;27613;48.116;11.656;2023-02-01T16:44:48;8.48;;;2.58;;
41923;SDS011;27613;48.116;11.656;2023-02-01T16:47:15;7.00;;;2.30;;
41923;SDS011;27613;48.116;11.656;2023-02-01T16:49:46;10.48;;;2.55;;
41923;SDS011;27613;48.116;11.656;2023-02-01T16:52:21;7.65;;;2.25;;
41923;SDS011;27613;48.116;11.656;2023-02-01T16:54:48;5.47;;;2.10;;
41923;SDS011;27613;48.116;11.656;2023-02-01T16:57:15;4.88;;;2.20;;
41923;SDS011;27613;48.116;11.656;2023-02-01T16:59:42;9.75;;;2.83;;
41923;SDS011;27613;48.116;11.656;2023-02-01T17:02:12;6.13;;;2.75;;
41923;SDS011;27613;48.116;11.656;2023-02-01T17:04:39;7.15;;;2.33;;
41923;SDS011;27613;48.116;11.656;2023-02-01T17:07:05;7.13;;;2.80;;
41923;SDS011;27613;48.116;11.656;2023-02-01T17:09:34;7.20;;;2.20;;
41923;SDS011;27613;48.116;11.656;2023-02-01T17:12:01;6.22;;;2.35;;
41923;SDS011;27613;48.116;11.656;2023-02-01T17:14:27;7.70;;;2.60;;
41923;SDS011;27613;48.116;11.656;2023-02-01T17:16:54;9.40;;;2.67;;
41923;SDS011;27613;48.116;11.656;2023-02-01T17:19:21;5.43;;;1.90;;
41923;SDS011;27613;48.116;11.656;2023-02-01T17:21:48;6.70;;;2.53;;
41923;SDS011;27613;48.116;11.656;2023-02-01T17:24:17;7.30;;;2.13;;
41923;SDS011;27613;48.116;11.656;2023-02-01T17:26:44;13.98;;;2.65;;